Time;durP1;ratioP1;P1;durP2;ratioP2;P2;SDS_P1;SDS_P2;PMS_P1;PMS_P2;Temp;Humidity;BMP_temperature;BMP_pressure;BME280_temperature;BME280_humidity;BME280_pressure;Samples;Min_cycle;Max_cycle;Signal;HPM_P1;HPM_P2
2023/06/13 00:01:15;;;;;;;;;;;17.90;92.00;;;;;;5060330;28;19992;-68
2023/06/13 00:03:42;;;;;;;;;;;17.90;92.00;;;;;;5044827;28;19980;-68
2023/06/13 00:06:09;;;;;;;;;;;17.80;92.10;;;;;;5043294;28;19921;-68
2023/06/13 00:08:35;;;;;;;;;;;17.80;92.10;;;;;;5043234;28;20116;-68
2023/06/13 00:11:03;;;;;;;;;;;17.80;92.20;;;;;;5043383;28;19921;-69
2023/06/13 00:13:30;;;;;;;;;;;17.80;92.30;;;;;;5024429;28;19921;-68
2023/06/13 00:15:58;;;;;;;;;;;17.70;92.30;;;;;;5024688;28;19952;-69
2023/06/13 00:18:25;;;;;;;;;;;17.60;92.30;;;;;;5031547;28;20231;-68
2023/06/13 00:20:54;;;;;;;;;;;17.50;92.40;;;;;;5043960;28;20391;-68
2023/06/13 00:23:21;;;;;;;;;;;17.50;92.60;;;;;;5044561;28;19928;-68
2023/06/13 00:25:47;;;;;;;;;;;17.50;92.70;;;;;;5044547;28;19928;-68
2023/06/13 00:28:15;;;;;;;;;;;17.50;92.80;;;;;;5044004;28;20181;-69
2023/06/13 00:30:43;;;;;;;;;;;17.50;93.00;;;;;;5041738;28;19921;-68
2023/06/13 00:33:16;;;;;;;;;;;17.40;93.10;;;;;;5050288;28;19920;-69
2023/06/13 00:35:42;;;;;;;;;;;17.40;93.20;;;;;;5063517;28;19950;-68
2023/06/13 00:38:09;;;;;;;;;;;17.40;93.40;;;;;;5063757;28;19921;-68
2023/06/13 00:40:37;;;;;;;;;;;17.40;93.40;;;;;;5061754;28;19927;-68
2023/06/13 00:43:03;;;;;;;;;;;17.40;93.50;;;;;;5063971;28;19920;-68
2023/06/13 00:45:33;;;;;;;;;;;17.30;93.60;;;;;;5064021;28;19984;-67
2023/06/13 00:48:02;;;;;;;;;;;17.20;93.70;;;;;;5064062;28;19920;-68
2023/06/13 00:50:30;;;;;;;;;;;17.20;94.00;;;;;;5062353;28;20154;-68
2023/06/13 00:52:58;;;;;;;;;;;17.10;94.20;;;;;;5063990;28;19962;-68
2023/06/13 00:55:26;;;;;;;;;;;17.00;94.40;;;;;;5051015;28;19921;-68
2023/06/13 00:57:55;;;;;;;;;;;16.90;94.50;;;;;;5043769;28;19956;-68
2023/06/13 01:00:26;;;;;;;;;;;16.80;94.60;;;;;;5051495;28;19927;-68
2023/06/13 01:02:57;;;;;;;;;;;16.60;94.70;;;;;;5064031;28;19927;-68
2023/06/13 01:05:28;;;;;;;;;;;16.60;95.00;;;;;;5047196;28;19963;-68
2023/06/13 01:07:57;;;;;;;;;;;16.50;95.20;;;;;;5044009;28;19928;-67
2023/06/13 01:10:25;;;;;;;;;;;16.40;95.30;;;;;;5043370;28;20116;-67
2023/06/13 01:15:41;;;;;;;;;;;16.20;95.70;;;;;;5066324;22;20119;-67
2023/06/13 01:18:09;;;;;;;;;;;16.10;95.90;;;;;;5063693;28;19927;-68
2023/06/13 01:20:56;;;;;;;;;;;16.10;96.20;;;;;;5062818;28;19927;-68
2023/06/13 01:23:26;;;;;;;;;;;16.00;96.40;;;;;;5063344;28;19948;-67
2023/06/13 01:25:59;;;;;;;;;;;15.90;96.80;;;;;;5045657;28;19921;-69
2023/06/13 01:28:28;;;;;;;;;;;15.80;97.00;;;;;;5043396;28;19928;-68
2023/06/13 01:30:55;;;;;;;;;;;15.80;97.20;;;;;;5042596;28;20097;-68
2023/06/13 01:33:25;;;;;;;;;;;15.70;97.40;;;;;;5040862;28;19921;-67
2023/06/13 01:35:52;;;;;;;;;;;15.70;97.80;;;;;;5042660;28;19987;-68
2023/06/13 01:38:19;;;;;;;;;;;15.60;97.90;;;;;;5043429;28;19980;-68
2023/06/13 01:40:45;;;;;;;;;;;15.50;98.20;;;;;;5042424;28;19971;-68
2023/06/13 01:43:12;;;;;;;;;;;15.50;98.40;;;;;;5043322;28;19982;-68
2023/06/13 01:45:40;;;;;;;;;;;15.50;98.70;;;;;;5043266;28;19921;-67
2023/06/13 01:48:09;;;;;;;;;;;15.40;99.00;;;;;;5043279;28;19927;-68
2023/06/13 01:50:40;;;;;;;;;;;15.40;99.30;;;;;;5042499;28;19921;-67
2023/06/13 01:53:09;;;;;;;;;;;15.40;99.60;;;;;;5042905;28;19963;-67
2023/06/13 01:55:39;;;;;;;;;;;15.30;99.80;;;;;;5043105;28;19922;-68
2023/06/13 01:58:10;;;;;;;;;;;15.30;99.90;;;;;;5043105;28;20263;-68
2023/06/13 02:00:39;;;;;;;;;;;15.20;99.90;;;;;;5042447;28;19984;-68
2023/06/13 02:03:07;;;;;;;;;;;15.10;99.90;;;;;;5046945;28;19979;-68
2023/06/13 02:05:35;;;;;;;;;;;15.00;99.90;;;;;;5047151;28;20265;-67
2023/06/13 02:08:02;;;;;;;;;;;14.80;99.90;;;;;;5046943;28;19920;-68
2023/06/13 02:10:29;;;;;;;;;;;14.80;99.90;;;;;;5046297;28;19928;-67
2023/06/13 02:12:55;;;;;;;;;;;14.70;99.90;;;;;;5047203;28;19921;-68
2023/06/13 02:15:22;;;;;;;;;;;14.60;99.90;;;;;;5046819;28;19980;-68
2023/06/13 02:17:48;;;;;;;;;;;14.50;99.90;;;;;;5046671;28;20183;-68
2023/06/13 02:20:16;;;;;;;;;;;14.50;99.90;;;;;;5046262;28;19929;-67
2023/06/13 02:22:43;;;;;;;;;;;14.40;99.90;;;;;;5046500;28;19927;-67
2023/06/13 02:25:10;;;;;;;;;;;14.40;99.90;;;;;;5046433;28;20205;-67
2023/06/13 02:27:38;;;;;;;;;;;14.30;99.90;;;;;;5046947;28;19921;-67
2023/06/13 02:30:05;;;;;;;;;;;14.20;99.90;;;;;;5046319;28;19957;-69
2023/06/13 02:32:36;;;;;;;;;;;14.10;99.90;;;;;;5043959;28;19929;-67
2023/06/13 02:35:03;;;;;;;;;;;14.00;99.90;;;;;;5046268;28;19927;-69
2023/06/13 02:37:31;;;;;;;;;;;14.00;99.90;;;;;;5046258;28;19929;-68
2023/06/13 02:39:57;;;;;;;;;;;14.00;99.90;;;;;;5046598;28;19928;-68
2023/06/13 02:42:24;;;;;;;;;;;13.90;99.90;;;;;;5045745;28;20284;-69
2023/06/13 02:44:50;;;;;;;;;;;13.90;99.90;;;;;;5046367;28;19963;-68
2023/06/13 02:47:19;;;;;;;;;;;13.80;99.90;;;;;;5046582;28;19979;-68
2023/06/13 02:49:45;;;;;;;;;;;13.80;99.90;;;;;;5046551;28;19952;-67
2023/06/13 02:52:12;;;;;;;;;;;13.70;99.90;;;;;;5045475;28;20295;-67
2023/06/13 02:54:40;;;;;;;;;;;13.70;99.90;;;;;;5045695;28;19927;-68
2023/06/13 02:57:07;;;;;;;;;;;13.60;99.90;;;;;;5046390;28;19927;-67
2023/06/13 02:59:34;;;;;;;;;;;13.60;99.90;;;;;;5046293;28;19948;-68
2023/06/13 03:02:01;;;;;;;;;;;13.60;99.90;;;;;;5045320;28;20288;-68
2023/06/13 03:04:28;;;;;;;;;;;13.50;99.90;;;;;;5044404;28;19928;-68
2023/06/13 03:06:54;;;;;;;;;;;13.50;99.90;;;;;;5045470;28;20208;-70
2023/06/13 03:09:21;;;;;;;;;;;13.50;99.90;;;;;;5046266;28;19928;-70
2023/06/13 03:11:49;;;;;;;;;;;13.40;99.90;;;;;;5044906;28;20115;-70
2023/06/13 03:14:17;;;;;;;;;;;13.30;99.90;;;;;;5044952;28;19988;-70
2023/06/13 03:16:43;;;;;;;;;;;13.20;99.90;;;;;;5045693;28;19921;-70
2023/06/13 03:19:10;;;;;;;;;;;13.20;99.90;;;;;;5045442;28;20135;-70
2023/06/13 03:24:50;;;;;;;;;;;13.00;99.90;;;;;;5028100;28;20199;-71
2023/06/13 03:27:19;;;;;;;;;;;12.90;99.90;;;;;;5043641;28;19997;-70
2023/06/13 03:29:45;;;;;;;;;;;12.90;99.90;;;;;;5045589;28;19921;-70
2023/06/13 04:12:00;;;;;;;;;;;12.50;99.90;;;;;;5037537;28;19952;-71
2023/06/13 04:14:26;;;;;;;;;;;12.50;99.90;;;;;;5044173;28;19960;-70
2023/06/13 04:16:53;;;;;;;;;;;12.50;99.90;;;;;;5044101;28;19992;-70
2023/06/13 04:19:20;;;;;;;;;;;12.60;99.90;;;;;;5044424;28;20276;-70
2023/06/13 04:21:47;;;;;;;;;;;12.60;99.90;;;;;;5043407;28;19921;-70
2023/06/13 04:24:14;;;;;;;;;;;12.60;99.90;;;;;;5043917;28;19985;-71
2023/06/13 04:26:41;;;;;;;;;;;12.70;99.90;;;;;;5043930;28;19980;-71
2023/06/13 04:29:09;;;;;;;;;;;12.70;99.90;;;;;;5044109;28;19929;-70
2023/06/13 04:31:37;;;;;;;;;;;12.80;99.90;;;;;;5043981;28;19921;-71
2023/06/13 04:34:05;;;;;;;;;;;12.90;99.90;;;;;;5044507;28;19922;-70
2023/06/13 04:36:33;;;;;;;;;;;13.00;99.90;;;;;;5044549;28;19921;-68
2023/06/13 04:39:04;;;;;;;;;;;13.10;99.90;;;;;;5044412;28;20081;-68
2023/06/13 04:41:34;;;;;;;;;;;13.10;99.90;;;;;;5043788;28;19952;-69
2023/06/13 04:44:03;;;;;;;;;;;13.20;99.90;;;;;;5037510;28;19922;-69
2023/06/13 04:46:31;;;;;;;;;;;13.20;99.90;;;;;;5031811;28;19980;-69
2023/06/13 04:48:58;;;;;;;;;;;13.20;99.90;;;;;;5038171;28;20217;-69
2023/06/13 04:51:25;;;;;;;;;;;13.20;99.90;;;;;;5043224;28;19925;-69
2023/06/13 04:53:52;;;;;;;;;;;13.20;99.90;;;;;;5024275;28;19921;-68
2023/06/13 04:56:19;;;;;;;;;;;13.30;99.90;;;;;;5034345;28;19952;-68
2023/06/13 04:58:45;;;;;;;;;;;13.30;99.90;;;;;;5043765;28;19960;-69
2023/06/13 05:01:13;;;;;;;;;;;13.50;99.90;;;;;;5043102;28;19923;-69
2023/06/13 05:03:45;;;;;;;;;;;13.50;99.90;;;;;;5042077;28;19921;-68
2023/06/13 05:06:12;;;;;;;;;;;13.60;99.90;;;;;;5043820;28;19943;-68
2023/06/13 05:08:38;;;;;;;;;;;13.70;99.90;;;;;;5043408;28;19928;-68
2023/06/13 05:11:05;;;;;;;;;;;13.80;99.90;;;;;;5043055;28;19952;-69
2023/06/13 05:13:32;;;;;;;;;;;13.90;99.90;;;;;;5043530;28;19988;-68
2023/06/13 05:15:58;;;;;;;;;;;14.10;99.90;;;;;;5043112;28;19928;-69
2023/06/13 05:18:29;;;;;;;;;;;14.20;99.90;;;;;;5043378;28;20016;-69
2023/06/13 05:20:57;;;;;;;;;;;14.30;99.90;;;;;;5043014;28;19927;-68
2023/06/13 05:23:24;;;;;;;;;;;14.30;99.90;;;;;;5043548;28;19928;-69
2023/06/13 05:25:51;;;;;;;;;;;14.40;99.90;;;;;;5043412;28;19923;-69
2023/06/13 05:28:19;;;;;;;;;;;14.60;99.90;;;;;;5042957;28;20263;-70
2023/06/13 05:30:53;;;;;;;;;;;14.70;99.90;;;;;;5040288;28;20008;-69
2023/06/13 05:33:20;;;;;;;;;;;14.90;99.90;;;;;;5043643;28;19988;-69
2023/06/13 05:35:46;;;;;;;;;;;15.10;99.90;;;;;;5043100;28;20172;-71
2023/06/13 05:38:14;;;;;;;;;;;15.20;99.90;;;;;;5043317;28;19921;-69
2023/06/13 05:40:41;;;;;;;;;;;15.30;99.90;;;;;;5022784;28;19983;-69
2023/06/13 05:43:08;;;;;;;;;;;15.40;99.90;;;;;;5023500;28;20229;-69
2023/06/13 05:45:34;;;;;;;;;;;15.60;99.90;;;;;;5038533;28;19921;-70
2023/06/13 05:48:01;;;;;;;;;;;15.70;99.90;;;;;;5043524;28;19927;-69
2023/06/13 05:50:27;;;;;;;;;;;15.90;99.90;;;;;;5042832;28;19927;-70
2023/06/13 05:52:54;;;;;;;;;;;16.00;99.90;;;;;;5043098;28;19996;-70
2023/06/13 05:55:22;;;;;;;;;;;16.10;99.90;;;;;;5043043;28;19921;-70
2023/06/13 05:57:50;;;;;;;;;;;16.20;99.90;;;;;;5043047;28;19929;-69
2023/06/13 06:00:17;;;;;;;;;;;16.30;99.90;;;;;;5042681;28;19952;-70
2023/06/13 06:02:44;;;;;;;;;;;16.40;99.90;;;;;;5043135;28;19928;-69
2023/06/13 06:05:11;;;;;;;;;;;16.50;99.90;;;;;;5043143;28;19921;-69
2023/06/13 06:07:38;;;;;;;;;;;16.50;99.90;;;;;;5042979;28;19959;-70
2023/06/13 06:10:05;;;;;;;;;;;16.60;99.90;;;;;;5042589;28;19988;-70
2023/06/13 06:12:33;;;;;;;;;;;16.60;99.90;;;;;;5042724;28;19992;-69
2023/06/13 06:15:00;;;;;;;;;;;16.70;99.90;;;;;;5042647;28;20020;-69
2023/06/13 06:17:26;;;;;;;;;;;16.80;99.90;;;;;;5043137;28;19927;-68
2023/06/13 06:19:53;;;;;;;;;;;16.80;99.90;;;;;;5042766;28;19957;-67
2023/06/13 06:22:20;;;;;;;;;;;16.80;99.90;;;;;;5042361;28;19979;-67
2023/06/13 06:24:46;;;;;;;;;;;16.90;99.90;;;;;;5039526;28;20280;-67
2023/06/13 06:27:13;;;;;;;;;;;17.00;99.90;;;;;;5042543;28;20276;-67
2023/06/13 06:29:44;;;;;;;;;;;17.10;99.90;;;;;;5040127;28;19928;-67
2023/06/13 06:32:11;;;;;;;;;;;17.10;99.90;;;;;;5042307;28;19921;-67
2023/06/13 06:34:40;;;;;;;;;;;17.20;99.90;;;;;;5041152;28;19921;-66
2023/06/13 06:37:07;;;;;;;;;;;17.20;99.90;;;;;;5040390;28;20148;-68
2023/06/13 06:39:34;;;;;;;;;;;17.30;99.90;;;;;;5042846;28;19921;-67
2023/06/13 06:42:01;;;;;;;;;;;17.30;99.90;;;;;;5041726;28;19921;-67
2023/06/13 06:44:27;;;;;;;;;;;17.30;99.90;;;;;;5042834;28;19952;-67
2023/06/13 06:46:55;;;;;;;;;;;17.40;99.90;;;;;;5028222;28;19988;-67
2023/06/13 06:49:22;;;;;;;;;;;17.40;99.90;;;;;;5032627;28;19992;-66
2023/06/13 06:51:49;;;;;;;;;;;17.50;99.90;;;;;;5045624;28;19921;-67
2023/06/13 06:54:15;;;;;;;;;;;17.60;99.90;;;;;;5046232;28;19984;-67
2023/06/13 06:56:42;;;;;;;;;;;17.70;99.90;;;;;;5045916;28;20255;-67
2023/06/13 06:59:08;;;;;;;;;;;17.80;99.90;;;;;;5045841;28;19989;-67
2023/06/13 07:01:35;;;;;;;;;;;17.90;99.90;;;;;;5042951;28;20013;-68
2023/06/13 07:04:03;;;;;;;;;;;18.00;99.90;;;;;;5046010;28;19928;-67
2023/06/13 07:06:30;;;;;;;;;;;18.10;99.90;;;;;;5045633;28;19921;-67
2023/06/13 07:08:57;;;;;;;;;;;18.20;99.90;;;;;;5046002;28;19963;-66
2023/06/13 07:11:23;;;;;;;;;;;18.20;99.90;;;;;;5041812;28;19963;-67
2023/06/13 07:13:50;;;;;;;;;;;18.20;99.90;;;;;;5045770;28;20207;-67
2023/06/13 07:16:17;;;;;;;;;;;18.30;99.90;;;;;;5045692;28;19925;-67
2023/06/13 07:18:43;;;;;;;;;;;18.40;99.90;;;;;;5045802;28;20354;-67
2023/06/13 07:21:11;;;;;;;;;;;18.40;99.90;;;;;;5044723;28;19921;-67
2023/06/13 07:23:38;;;;;;;;;;;18.40;99.90;;;;;;5045102;28;19935;-67
2023/06/13 07:26:05;;;;;;;;;;;18.50;99.90;;;;;;5044777;28;19927;-67
2023/06/13 07:28:31;;;;;;;;;;;18.50;99.90;;;;;;5045062;28;19925;-68
2023/06/13 07:30:58;;;;;;;;;;;18.50;99.90;;;;;;5045120;28;19980;-66
2023/06/13 07:33:25;;;;;;;;;;;18.60;99.90;;;;;;5044477;28;19984;-67
2023/06/13 07:35:52;;;;;;;;;;;18.60;99.90;;;;;;5045515;28;19921;-73
2023/06/13 07:38:20;;;;;;;;;;;18.70;99.90;;;;;;5045351;28;19963;-68
2023/06/13 07:40:47;;;;;;;;;;;18.70;99.10;;;;;;5044974;28;19925;-68
2023/06/13 07:43:13;;;;;;;;;;;18.70;99.90;;;;;;5045498;28;19928;-67
2023/06/13 07:45:40;;;;;;;;;;;18.80;99.60;;;;;;5042570;28;19975;-68
2023/06/13 07:48:07;;;;;;;;;;;18.80;99.60;;;;;;5045266;28;19927;-68
2023/06/13 07:50:34;;;;;;;;;;;18.80;99.90;;;;;;5044664;28;19927;-69
2023/06/13 08:48:06;;;;;;;;;;;20.30;97.70;;;;;;5043920;28;19919;-71
2023/06/13 08:50:33;;;;;;;;;;;20.30;96.80;;;;;;5038731;28;19957;-71
2023/06/13 08:53:00;;;;;;;;;;;20.40;96.70;;;;;;5044373;28;19921;-70
2023/06/13 08:55:28;;;;;;;;;;;20.50;95.10;;;;;;5044323;28;20001;-70
2023/06/13 08:57:55;;;;;;;;;;;20.50;95.50;;;;;;5044521;28;19920;-71
2023/06/13 09:00:22;;;;;;;;;;;20.50;95.40;;;;;;5043489;28;20255;-71
2023/06/13 09:02:50;;;;;;;;;;;20.60;93.90;;;;;;5044309;28;19925;-70
2023/06/13 09:05:20;;;;;;;;;;;20.70;94.00;;;;;;5041409;28;19921;-70
2023/06/13 09:07:47;;;;;;;;;;;20.70;94.00;;;;;;5044289;28;19921;-71
2023/06/13 09:10:14;;;;;;;;;;;20.80;93.60;;;;;;5043258;28;19927;-71
2023/06/13 09:12:41;;;;;;;;;;;20.80;93.10;;;;;;5043868;28;20167;-70
2023/06/13 09:15:09;;;;;;;;;;;20.80;93.80;;;;;;5043728;28;19928;-71
2023/06/13 09:17:35;;;;;;;;;;;20.90;93.30;;;;;;5044231;28;19921;-71
2023/06/13 09:20:03;;;;;;;;;;;21.00;93.50;;;;;;5031223;28;19989;-71
2023/06/13 09:22:31;;;;;;;;;;;21.00;92.90;;;;;;5023846;28;19992;-71
2023/06/13 09:24:59;;;;;;;;;;;21.00;92.80;;;;;;5024106;28;19929;-70
2023/06/13 09:27:26;;;;;;;;;;;21.00;92.50;;;;;;5024242;28;19927;-70
2023/06/13 09:29:53;;;;;;;;;;;21.00;93.20;;;;;;5040400;28;19921;-71
2023/06/13 09:32:20;;;;;;;;;;;21.20;93.20;;;;;;5043188;28;19989;-71
2023/06/13 09:34:49;;;;;;;;;;;21.30;92.60;;;;;;5043363;28;19961;-71
2023/06/13 09:37:15;;;;;;;;;;;21.40;92.60;;;;;;5036138;28;19921;-70
2023/06/13 09:39:50;;;;;;;;;;;21.40;92.20;;;;;;5035060;28;19925;-71
2023/06/13 09:42:20;;;;;;;;;;;21.50;92.00;;;;;;5038128;28;19924;-70
2023/06/13 09:44:47;;;;;;;;;;;21.50;91.80;;;;;;5041354;28;19928;-69
2023/06/13 09:47:20;;;;;;;;;;;21.50;92.50;;;;;;5023627;28;19921;-69
2023/06/13 09:49:46;;;;;;;;;;;21.60;91.80;;;;;;5020835;28;19926;-69
2023/06/13 09:52:15;;;;;;;;;;;21.60;91.30;;;;;;5033732;28;19927;-68
2023/06/13 09:54:43;;;;;;;;;;;21.70;92.60;;;;;;5025048;28;20086;-69
2023/06/13 09:57:12;;;;;;;;;;;21.70;91.20;;;;;;5023470;28;19922;-70
2023/06/13 09:59:39;;;;;;;;;;;21.60;91.60;;;;;;5023486;28;20156;-70
2023/06/13 10:02:06;;;;;;;;;;;21.70;91.50;;;;;;5021020;28;19928;-71
2023/06/13 10:04:34;;;;;;;;;;;21.70;91.80;;;;;;5021053;28;19996;-72
2023/06/13 10:07:02;;;;;;;;;;;21.70;92.00;;;;;;5023204;28;20165;-71
2023/06/13 10:09:28;;;;;;;;;;;21.70;90.70;;;;;;5035391;28;19928;-70
2023/06/13 10:11:56;;;;;;;;;;;21.80;91.30;;;;;;5042334;28;19988;-69
2023/06/13 10:14:24;;;;;;;;;;;21.90;90.30;;;;;;5042965;28;19955;-69
2023/06/13 10:16:52;;;;;;;;;;;21.90;90.40;;;;;;5043160;28;19927;-69
2023/06/13 10:19:20;;;;;;;;;;;21.90;90.70;;;;;;5036890;28;19928;-69
2023/06/13 10:21:47;;;;;;;;;;;22.00;91.20;;;;;;5022681;28;19922;-69
2023/06/13 10:24:17;;;;;;;;;;;22.10;91.30;;;;;;5023080;28;19921;-69
2023/06/13 10:26:45;;;;;;;;;;;22.30;90.20;;;;;;5026954;28;19928;-70
2023/06/13 10:29:23;;;;;;;;;;;22.30;90.10;;;;;;5027176;28;19929;-69
2023/06/13 10:31:56;;;;;;;;;;;22.30;90.80;;;;;;5026447;28;19928;-69
2023/06/13 10:34:32;;;;;;;;;;;22.40;90.60;;;;;;5027071;28;19989;-70
2023/06/13 10:37:09;;;;;;;;;;;22.30;90.20;;;;;;5025942;28;20148;-70
2023/06/13 10:39:41;;;;;;;;;;;22.40;90.50;;;;;;5028702;28;19925;-70
2023/06/13 10:42:18;;;;;;;;;;;22.60;90.90;;;;;;5045367;28;20231;-70
2023/06/13 10:44:48;;;;;;;;;;;22.80;90.60;;;;;;5046185;28;20271;-70
2023/06/13 10:47:18;;;;;;;;;;;22.90;89.60;;;;;;5046037;28;19921;-69
2023/06/13 10:49:48;;;;;;;;;;;23.00;86.30;;;;;;5026686;28;19980;-69
2023/06/13 10:52:23;;;;;;;;;;;23.00;88.30;;;;;;5024230;28;19929;-70
2023/06/13 10:54:52;;;;;;;;;;;23.10;87.50;;;;;;5043552;28;20216;-71
2023/06/13 10:57:19;;;;;;;;;;;23.10;87.30;;;;;;5046499;28;19925;-70
2023/06/13 10:59:47;;;;;;;;;;;23.20;88.20;;;;;;5046357;28;20111;-70
2023/06/13 11:02:15;;;;;;;;;;;23.30;86.60;;;;;;5045627;28;19925;-70
2023/06/13 11:04:45;;;;;;;;;;;23.40;86.70;;;;;;5046084;28;20116;-71
2023/06/13 11:07:25;;;;;;;;;;;23.60;82.70;;;;;;5046202;28;19921;-70
2023/06/13 11:10:01;;;;;;;;;;;23.80;83.70;;;;;;5046190;28;19984;-70
2023/06/13 11:12:28;;;;;;;;;;;23.80;85.50;;;;;;5045325;28;19928;-70
2023/06/13 11:14:56;;;;;;;;;;;23.70;84.90;;;;;;5045596;28;19920;-70
2023/06/13 11:17:23;;;;;;;;;;;23.70;84.00;;;;;;5046001;28;19956;-70
2023/06/13 11:19:52;;;;;;;;;;;23.80;84.50;;;;;;5045009;28;19921;-70
2023/06/13 11:22:21;;;;;;;;;;;24.00;84.10;;;;;;5045146;28;19928;-70
2023/06/13 11:24:48;;;;;;;;;;;24.20;83.60;;;;;;5045679;28;19984;-70
2023/06/13 11:27:16;;;;;;;;;;;24.30;82.10;;;;;;5041807;28;19921;-70
2023/06/13 11:29:43;;;;;;;;;;;24.50;83.20;;;;;;5034617;28;20112;-70
2023/06/13 11:32:10;;;;;;;;;;;24.50;77.90;;;;;;5044976;28;19921;-73
2023/06/13 11:34:39;;;;;;;;;;;24.40;78.60;;;;;;5045114;28;19929;-70
2023/06/13 11:37:11;;;;;;;;;;;24.50;80.00;;;;;;5045352;28;19963;-70
2023/06/13 11:39:38;;;;;;;;;;;24.70;78.80;;;;;;5045661;28;20112;-69
2023/06/13 11:42:06;;;;;;;;;;;24.80;78.70;;;;;;5044689;28;19988;-69
2023/06/13 11:44:33;;;;;;;;;;;24.80;79.20;;;;;;5045288;28;19921;-70
2023/06/13 11:46:59;;;;;;;;;;;24.90;80.00;;;;;;5045440;28;19956;-70
2023/06/13 11:49:26;;;;;;;;;;;25.10;78.50;;;;;;5045444;28;19921;-70
2023/06/13 11:51:53;;;;;;;;;;;25.10;79.50;;;;;;5044540;28;19963;-70
2023/06/13 11:54:28;;;;;;;;;;;25.20;79.50;;;;;;5044810;28;20280;-70
2023/06/13 11:56:55;;;;;;;;;;;25.30;76.90;;;;;;5045283;28;20235;-70
2023/06/13 11:59:22;;;;;;;;;;;25.40;77.00;;;;;;5045279;28;20124;-70
2023/06/13 12:01:49;;;;;;;;;;;25.70;77.60;;;;;;5036554;28;20221;-70
2023/06/13 12:04:15;;;;;;;;;;;25.80;76.50;;;;;;5025258;28;19968;-70
2023/06/13 12:06:42;;;;;;;;;;;25.80;76.30;;;;;;5025244;28;20009;-70
2023/06/13 12:09:09;;;;;;;;;;;25.90;74.80;;;;;;5025264;28;20094;-71
2023/06/13 12:11:37;;;;;;;;;;;26.00;74.30;;;;;;5024143;28;20209;-70
2023/06/13 12:14:04;;;;;;;;;;;26.00;73.00;;;;;;5024966;28;20148;-70
2023/06/13 12:16:32;;;;;;;;;;;25.90;72.80;;;;;;5024643;28;20148;-70
2023/06/13 12:18:59;;;;;;;;;;;25.90;73.60;;;;;;5025032;28;19982;-70
2023/06/13 12:21:28;;;;;;;;;;;26.10;74.40;;;;;;5024064;28;19921;-69
2023/06/13 12:23:55;;;;;;;;;;;26.30;73.30;;;;;;5024861;28;19921;-71
2023/06/13 12:26:22;;;;;;;;;;;26.50;72.10;;;;;;5024596;28;20223;-70
2023/06/13 12:28:52;;;;;;;;;;;26.40;72.20;;;;;;5024549;28;19921;-70
2023/06/13 12:31:28;;;;;;;;;;;26.30;74.70;;;;;;5023781;28;19988;-69
2023/06/13 12:34:03;;;;;;;;;;;26.20;75.70;;;;;;5024474;28;20213;-69
2023/06/13 12:36:37;;;;;;;;;;;26.20;74.20;;;;;;5036681;28;19963;-70
2023/06/13 12:39:05;;;;;;;;;;;26.10;74.80;;;;;;5044492;28;19928;-70
2023/06/13 12:41:33;;;;;;;;;;;26.10;74.20;;;;;;5043012;28;20426;-70
2023/06/13 12:44:01;;;;;;;;;;;26.10;74.20;;;;;;5044134;28;19940;-70
2023/06/13 12:46:28;;;;;;;;;;;26.10;73.90;;;;;;5043319;28;19921;-70
2023/06/13 12:48:55;;;;;;;;;;;26.20;74.20;;;;;;5044240;28;19988;-70
2023/06/13 12:51:28;;;;;;;;;;;26.30;74.30;;;;;;5043307;28;20008;-69
2023/06/13 12:53:57;;;;;;;;;;;26.50;73.00;;;;;;5043868;28;19921;-69
2023/06/13 12:56:25;;;;;;;;;;;26.70;71.80;;;;;;5043927;28;20000;-70
2023/06/13 12:58:59;;;;;;;;;;;26.80;70.90;;;;;;5043841;28;20116;-70
2023/06/13 13:01:27;;;;;;;;;;;26.80;71.00;;;;;;5042943;28;19927;-69
2023/06/13 13:03:54;;;;;;;;;;;26.90;70.40;;;;;;5043347;28;19999;-70
2023/06/13 13:06:23;;;;;;;;;;;27.20;70.70;;;;;;5043204;28;19920;-69
2023/06/13 13:08:50;;;;;;;;;;;27.20;69.40;;;;;;5043441;28;19928;-70
2023/06/13 13:11:16;;;;;;;;;;;27.00;68.20;;;;;;5043036;28;19997;-70
2023/06/13 13:13:45;;;;;;;;;;;26.80;68.90;;;;;;5043392;28;19929;-70
2023/06/13 13:16:12;;;;;;;;;;;26.80;68.50;;;;;;5043205;28;19920;-69
2023/06/13 13:18:40;;;;;;;;;;;26.80;66.30;;;;;;5042584;28;20120;-70
2023/06/13 13:21:07;;;;;;;;;;;26.80;66.60;;;;;;5023288;28;19927;-70
2023/06/13 13:23:33;;;;;;;;;;;27.00;66.00;;;;;;5042037;28;19960;-71
2023/06/13 13:26:00;;;;;;;;;;;27.30;67.60;;;;;;5042921;28;20145;-68
2023/06/13 13:28:27;;;;;;;;;;;27.50;67.90;;;;;;5043339;28;19921;-68
2023/06/13 13:30:53;;;;;;;;;;;27.60;67.10;;;;;;5042609;28;19987;-68
2023/06/13 13:33:24;;;;;;;;;;;27.50;66.40;;;;;;5043253;28;19988;-69
2023/06/13 13:35:53;;;;;;;;;;;27.20;64.90;;;;;;5043186;28;19948;-67
2023/06/13 13:38:19;;;;;;;;;;;27.00;65.50;;;;;;5043257;28;19927;-67
2023/06/13 13:40:46;;;;;;;;;;;27.00;66.20;;;;;;5042925;28;19959;-67
2023/06/13 13:43:12;;;;;;;;;;;27.20;65.50;;;;;;5043278;28;20120;-68
2023/06/13 13:45:39;;;;;;;;;;;27.20;65.30;;;;;;5042881;28;19959;-68
2023/06/13 13:48:10;;;;;;;;;;;27.20;64.80;;;;;;5043350;28;19968;-67
2023/06/13 13:50:37;;;;;;;;;;;27.20;63.70;;;;;;5042620;28;19987;-68
2023/06/13 13:53:06;;;;;;;;;;;27.30;63.90;;;;;;5042857;28;19921;-67
2023/06/13 13:55:33;;;;;;;;;;;27.50;64.20;;;;;;5043079;28;20112;-68
2023/06/13 13:58:00;;;;;;;;;;;27.60;62.70;;;;;;5045932;28;19992;-71
2023/06/13 14:00:27;;;;;;;;;;;27.70;61.60;;;;;;5047044;28;19992;-67
2023/06/13 14:02:54;;;;;;;;;;;27.70;62.10;;;;;;5046129;28;20163;-68
2023/06/13 14:05:20;;;;;;;;;;;27.50;62.40;;;;;;5046999;28;19921;-68
2023/06/13 14:07:49;;;;;;;;;;;27.60;63.70;;;;;;5047009;28;19988;-67
2023/06/13 14:10:17;;;;;;;;;;;27.70;63.00;;;;;;5041468;28;19928;-66
2023/06/13 14:12:44;;;;;;;;;;;27.70;59.20;;;;;;5046768;28;19993;-70
2023/06/13 14:15:11;;;;;;;;;;;27.50;58.60;;;;;;5046707;28;20120;-69
2023/06/13 14:17:38;;;;;;;;;;;27.50;58.50;;;;;;5046774;28;19988;-70
2023/06/13 14:20:06;;;;;;;;;;;27.40;59.60;;;;;;5046827;28;19928;-69
2023/06/13 14:22:32;;;;;;;;;;;27.60;59.80;;;;;;5046862;28;19922;-70
2023/06/13 14:24:59;;;;;;;;;;;27.80;59.40;;;;;;5047006;28;19992;-70
2023/06/13 14:27:27;;;;;;;;;;;27.90;58.40;;;;;;5047125;28;19921;-70
2023/06/13 14:29:53;;;;;;;;;;;28.10;57.80;;;;;;5046826;28;20112;-70
2023/06/13 14:32:20;;;;;;;;;;;28.30;58.50;;;;;;5046362;28;20001;-69
2023/06/13 14:34:47;;;;;;;;;;;28.20;57.70;;;;;;5046521;28;19979;-70
2023/06/13 14:37:13;;;;;;;;;;;28.00;56.20;;;;;;5046844;28;19949;-70
2023/06/13 14:39:40;;;;;;;;;;;28.00;56.40;;;;;;5046546;28;20168;-69
2023/06/13 14:42:07;;;;;;;;;;;27.90;57.50;;;;;;5045117;28;19987;-68
2023/06/13 14:44:35;;;;;;;;;;;27.90;57.60;;;;;;5046207;28;19921;-69
2023/06/13 14:47:01;;;;;;;;;;;27.80;58.20;;;;;;5046039;28;20015;-68
2023/06/13 14:49:28;;;;;;;;;;;28.00;57.50;;;;;;5046583;28;19993;-70
2023/06/13 14:51:54;;;;;;;;;;;27.90;57.70;;;;;;5045835;28;19989;-68
2023/06/13 14:54:21;;;;;;;;;;;27.80;58.50;;;;;;5046205;28;20167;-69
2023/06/13 14:56:48;;;;;;;;;;;27.70;58.80;;;;;;5046370;28;19992;-69
2023/06/13 14:59:14;;;;;;;;;;;28.00;59.70;;;;;;5046173;28;19921;-69
2023/06/13 15:01:42;;;;;;;;;;;28.00;57.80;;;;;;5045503;28;19928;-69
2023/06/13 15:04:10;;;;;;;;;;;28.10;56.50;;;;;;5044178;28;19983;-68
2023/06/13 15:06:38;;;;;;;;;;;28.10;57.70;;;;;;5045914;28;19921;-69
2023/06/13 15:09:04;;;;;;;;;;;28.20;57.70;;;;;;5045110;28;20220;-69
2023/06/13 15:11:31;;;;;;;;;;;28.30;58.20;;;;;;5045338;28;19921;-69
2023/06/13 15:13:58;;;;;;;;;;;28.10;58.80;;;;;;5045637;28;19928;-69
2023/06/13 15:16:24;;;;;;;;;;;28.10;61.40;;;;;;5046114;28;19995;-70
2023/06/13 15:18:52;;;;;;;;;;;28.10;59.10;;;;;;5046159;28;20016;-69
2023/06/13 15:21:19;;;;;;;;;;;28.10;58.90;;;;;;5045099;28;20230;-69
2023/06/13 15:23:46;;;;;;;;;;;27.90;58.40;;;;;;5045502;28;19960;-69
2023/06/13 15:26:12;;;;;;;;;;;27.90;59.70;;;;;;5045723;28;20176;-69
2023/06/13 15:28:40;;;;;;;;;;;27.70;60.30;;;;;;5045853;28;19952;-70
2023/06/13 15:31:07;;;;;;;;;;;27.80;59.10;;;;;;5044464;28;19928;-69
2023/06/13 15:33:35;;;;;;;;;;;27.80;59.90;;;;;;5045735;28;19948;-69
2023/06/13 15:36:03;;;;;;;;;;;28.00;58.90;;;;;;5045545;28;19928;-69
2023/06/13 15:38:30;;;;;;;;;;;28.10;58.60;;;;;;5045828;28;19960;-69
2023/06/13 15:40:57;;;;;;;;;;;28.10;58.00;;;;;;5044989;28;20094;-69
2023/06/13 15:43:24;;;;;;;;;;;28.10;57.10;;;;;;5045399;28;19963;-69
2023/06/13 15:45:50;;;;;;;;;;;28.10;57.50;;;;;;5044811;28;19925;-66
2023/06/13 15:48:17;;;;;;;;;;;28.20;56.80;;;;;;5044750;28;19992;-71
2023/06/13 15:50:44;;;;;;;;;;;28.20;57.80;;;;;;5044252;28;19984;-66
2023/06/13 15:53:12;;;;;;;;;;;28.10;57.60;;;;;;5045077;28;19988;-66
2023/06/13 15:55:39;;;;;;;;;;;28.00;58.00;;;;;;5045089;28;19988;-67
2023/06/13 15:58:06;;;;;;;;;;;28.20;59.70;;;;;;5044997;28;19967;-67
2023/06/13 16:00:35;;;;;;;;;;;28.30;57.50;;;;;;5044079;28;19952;-67